バンコク/スワンナプーム の空港の天気 - METARとTAF

スワンナプーム国際空港 ( VTBS / BKK ) - タイ サムットプラーカーン県 (バンコク近郊)
飛行場実況気象(Metar)
観測時間09/23 07:00 ICT (09/23 00:00 UTC)
風向・風速不定 2m/s
視程10km以上
天気現象
少しの雲 雲底高度 300m
全天の4割程度の雲 雲底高度 1520m
気温26℃
湿度94%
気圧1008hPa
METARVTBS 230000Z VRB03KT 9999 FEW010 SCT050 26/25 Q1008 NOSIG
過去の天気等 Google飛行場航空写真 Wunderground天気予報

過去48時間のMETAR

飛行場予報(TAF)
発表時間: 9/23 06:00 ICT (9/22 23:00 UTC)
予報対象時間: 23日7時 ICT ~ 24日13時 ICT
風向・風速東南東 3m/s
視程10km以上
少しの雲 雲底高度 610m
全天の4割程度の雲 雲底高度 1220m
23日9時 ICT ~ 23日11時 ICT に徐々に
風向・風速南南西 4m/s
23日13時 ICT ~ 23日17時 ICT に一時的に
風向・風速不定 8m/s
視程3000m
天気現象雷雨
少しの積乱雲 雲底高度 550m
全天の4割程度の雲 雲底高度 910m
全天の8割程度の雲 雲底高度 3050m
23日23時 ICT ~ 24日3時 ICT に一時的に
風向・風速不定 8m/s
視程3000m
天気現象雷雨
少しの積乱雲 雲底高度 550m
全天の4割程度の雲 雲底高度 910m
全天の8割程度の雲 雲底高度 3050m
TAF VTBS 222300Z 2300/2406 12005KT 9999 FEW020 SCT040
BECMG 2302/2304 20008KT
TEMPO 2306/2310 VRB15KT 3000 TSRA FEW018CB SCT030 BKN100
TEMPO 2316/2320 VRB15KT 3000 TSRA FEW018CB SCT030 BKN100